sensor_id;sensor_type;location;lat;lon;timestamp;P1;durP1;ratioP1;P2;durP2;ratioP2
58896;SDS011;44677;52.378;10.400;2023-02-08T00:00:51;68.20;;;30.10;;
58896;SDS011;44677;52.378;10.400;2023-02-08T00:03:16;58.70;;;26.50;;
58896;SDS011;44677;52.378;10.400;2023-02-08T00:05:42;63.70;;;28.90;;
58896;SDS011;44677;52.378;10.400;2023-02-08T00:08:07;61.30;;;28.50;;
58896;SDS011;44677;52.378;10.400;2023-02-08T00:10:33;64.10;;;28.90;;
58896;SDS011;44677;52.378;10.400;2023-02-08T00:12:59;66.70;;;28.60;;
58896;SDS011;44677;52.378;10.400;2023-02-08T00:15:24;64.00;;;27.40;;
58896;SDS011;44677;52.378;10.400;2023-02-08T00:17:50;58.60;;;26.10;;
58896;SDS011;44677;52.378;10.400;2023-02-08T00:20:15;65.00;;;28.10;;
58896;SDS011;44677;52.378;10.400;2023-02-08T00:22:41;56.80;;;25.10;;
58896;SDS011;44677;52.378;10.400;2023-02-08T00:25:07;61.60;;;27.60;;
58896;SDS011;44677;52.378;10.400;2023-02-08T00:27:32;58.70;;;26.80;;
58896;SDS011;44677;52.378;10.400;2023-02-08T00:29:58;57.40;;;25.90;;
58896;SDS011;44677;52.378;10.400;2023-02-08T00:32:23;54.00;;;25.90;;
58896;SDS011;44677;52.378;10.400;2023-02-08T00:34:49;59.30;;;26.20;;
58896;SDS011;44677;52.378;10.400;2023-02-08T00:37:15;56.70;;;25.50;;
58896;SDS011;44677;52.378;10.400;2023-02-08T00:39:40;58.40;;;26.20;;
58896;SDS011;44677;52.378;10.400;2023-02-08T00:42:06;63.20;;;27.90;;
58896;SDS011;44677;52.378;10.400;2023-02-08T00:44:31;62.10;;;26.40;;
58896;SDS011;44677;52.378;10.400;2023-02-08T00:46:56;59.40;;;25.60;;
58896;SDS011;44677;52.378;10.400;2023-02-08T00:49:22;54.10;;;23.30;;
58896;SDS011;44677;52.378;10.400;2023-02-08T00:51:47;61.80;;;26.30;;
58896;SDS011;44677;52.378;10.400;2023-02-08T00:54:13;58.20;;;26.50;;
58896;SDS011;44677;52.378;10.400;2023-02-08T00:56:46;58.70;;;26.30;;
58896;SDS011;44677;52.378;10.400;2023-02-08T00:59:12;53.30;;;25.70;;
58896;SDS011;44677;52.378;10.400;2023-02-08T01:01:38;57.90;;;26.20;;
58896;SDS011;44677;52.378;10.400;2023-02-08T01:04:06;59.60;;;26.40;;
58896;SDS011;44677;52.378;10.400;2023-02-08T01:06:31;58.00;;;25.20;;
58896;SDS011;44677;52.378;10.400;2023-02-08T01:08:57;56.10;;;24.20;;
58896;SDS011;44677;52.378;10.400;2023-02-08T01:11:24;61.40;;;27.90;;
58896;SDS011;44677;52.378;10.400;2023-02-08T01:13:51;55.40;;;25.20;;
58896;SDS011;44677;52.378;10.400;2023-02-08T01:16:25;58.40;;;27.40;;
58896;SDS011;44677;52.378;10.400;2023-02-08T01:19:07;63.20;;;26.80;;
58896;SDS011;44677;52.378;10.400;2023-02-08T01:21:37;56.20;;;25.70;;
58896;SDS011;44677;52.378;10.400;2023-02-08T01:24:09;57.40;;;25.20;;
58896;SDS011;44677;52.378;10.400;2023-02-08T01:26:37;59.20;;;26.00;;
58896;SDS011;44677;52.378;10.400;2023-02-08T01:29:05;52.00;;;23.20;;
58896;SDS011;44677;52.378;10.400;2023-02-08T01:31:32;57.20;;;26.30;;
58896;SDS011;44677;52.378;10.400;2023-02-08T01:34:02;56.20;;;26.00;;
58896;SDS011;44677;52.378;10.400;2023-02-08T01:36:28;59.20;;;26.40;;
58896;SDS011;44677;52.378;10.400;2023-02-08T01:38:55;56.00;;;25.40;;
58896;SDS011;44677;52.378;10.400;2023-02-08T01:41:32;49.70;;;24.50;;
58896;SDS011;44677;52.378;10.400;2023-02-08T01:46:40;57.60;;;25.30;;
58896;SDS011;44677;52.378;10.400;2023-02-08T01:51:57;58.40;;;26.20;;
58896;SDS011;44677;52.378;10.400;2023-02-08T01:54:43;58.30;;;25.90;;
58896;SDS011;44677;52.378;10.400;2023-02-08T01:57:19;52.10;;;24.10;;
58896;SDS011;44677;52.378;10.400;2023-02-08T01:59:48;52.50;;;24.00;;
58896;SDS011;44677;52.378;10.400;2023-02-08T02:02:23;53.20;;;24.30;;
58896;SDS011;44677;52.378;10.400;2023-02-08T02:04:49;55.00;;;23.80;;
58896;SDS011;44677;52.378;10.400;2023-02-08T02:07:16;49.40;;;22.10;;
58896;SDS011;44677;52.378;10.400;2023-02-08T02:09:45;56.70;;;23.20;;
58896;SDS011;44677;52.378;10.400;2023-02-08T02:12:39;49.00;;;22.20;;
58896;SDS011;44677;52.378;10.400;2023-02-08T02:15:06;52.90;;;23.30;;
58896;SDS011;44677;52.378;10.400;2023-02-08T02:17:34;61.50;;;24.20;;
58896;SDS011;44677;52.378;10.400;2023-02-08T02:20:06;61.20;;;26.20;;
58896;SDS011;44677;52.378;10.400;2023-02-08T02:28:52;46.30;;;21.30;;
58896;SDS011;44677;52.378;10.400;2023-02-08T02:37:14;54.10;;;23.60;;
58896;SDS011;44677;52.378;10.400;2023-02-08T02:43:51;50.80;;;22.90;;
58896;SDS011;44677;52.378;10.400;2023-02-08T02:46:22;46.40;;;21.70;;
58896;SDS011;44677;52.378;10.400;2023-02-08T02:49:00;48.00;;;21.80;;
58896;SDS011;44677;52.378;10.400;2023-02-08T02:51:42;55.40;;;23.90;;
58896;SDS011;44677;52.378;10.400;2023-02-08T02:56:43;61.40;;;25.80;;
58896;SDS011;44677;52.378;10.400;2023-02-08T02:59:14;48.00;;;22.80;;
58896;SDS011;44677;52.378;10.400;2023-02-08T03:01:40;59.00;;;25.90;;
58896;SDS011;44677;52.378;10.400;2023-02-08T03:04:15;51.40;;;23.70;;
58896;SDS011;44677;52.378;10.400;2023-02-08T03:20:31;47.00;;;20.70;;
58896;SDS011;44677;52.378;10.400;2023-02-08T03:26:14;47.70;;;22.50;;
58896;SDS011;44677;52.378;10.400;2023-02-08T03:28:53;56.80;;;25.20;;
58896;SDS011;44677;52.378;10.400;2023-02-08T03:31:45;57.60;;;24.20;;
58896;SDS011;44677;52.378;10.400;2023-02-08T03:36:54;55.80;;;23.60;;
58896;SDS011;44677;52.378;10.400;2023-02-08T03:39:34;57.10;;;21.90;;
58896;SDS011;44677;52.378;10.400;2023-02-08T03:42:03;56.30;;;23.70;;
58896;SDS011;44677;52.378;10.400;2023-02-08T03:44:39;56.70;;;25.60;;
58896;SDS011;44677;52.378;10.400;2023-02-08T03:47:14;52.60;;;23.00;;
58896;SDS011;44677;52.378;10.400;2023-02-08T03:49:44;62.70;;;27.00;;
58896;SDS011;44677;52.378;10.400;2023-02-08T03:52:11;51.30;;;21.00;;
58896;SDS011;44677;52.378;10.400;2023-02-08T03:54:55;58.70;;;26.00;;
58896;SDS011;44677;52.378;10.400;2023-02-08T03:57:54;55.00;;;25.80;;
58896;SDS011;44677;52.378;10.400;2023-02-08T04:00:39;58.50;;;25.20;;
58896;SDS011;44677;52.378;10.400;2023-02-08T04:03:30;50.40;;;21.90;;
58896;SDS011;44677;52.378;10.400;2023-02-08T04:05:59;58.60;;;25.60;;
58896;SDS011;44677;52.378;10.400;2023-02-08T04:08:26;53.80;;;23.80;;
58896;SDS011;44677;52.378;10.400;2023-02-08T04:10:54;55.20;;;23.90;;
58896;SDS011;44677;52.378;10.400;2023-02-08T04:13:20;52.80;;;23.20;;
58896;SDS011;44677;52.378;10.400;2023-02-08T04:15:45;52.20;;;24.90;;
58896;SDS011;44677;52.378;10.400;2023-02-08T04:18:11;55.20;;;24.20;;
58896;SDS011;44677;52.378;10.400;2023-02-08T04:20:37;54.60;;;24.10;;
58896;SDS011;44677;52.378;10.400;2023-02-08T04:23:02;59.00;;;24.70;;
58896;SDS011;44677;52.378;10.400;2023-02-08T04:25:28;54.30;;;25.80;;
58896;SDS011;44677;52.378;10.400;2023-02-08T04:27:53;54.70;;;24.20;;
58896;SDS011;44677;52.378;10.400;2023-02-08T04:30:19;54.70;;;23.70;;
58896;SDS011;44677;52.378;10.400;2023-02-08T04:32:45;58.10;;;27.40;;
58896;SDS011;44677;52.378;10.400;2023-02-08T04:35:10;49.40;;;21.80;;
58896;SDS011;44677;52.378;10.400;2023-02-08T04:37:38;56.40;;;24.20;;
58896;SDS011;44677;52.378;10.400;2023-02-08T04:40:04;54.20;;;23.80;;
58896;SDS011;44677;52.378;10.400;2023-02-08T04:42:29;51.70;;;22.70;;
58896;SDS011;44677;52.378;10.400;2023-02-08T04:44:55;49.70;;;22.90;;
58896;SDS011;44677;52.378;10.400;2023-02-08T04:47:20;45.00;;;21.90;;
58896;SDS011;44677;52.378;10.400;2023-02-08T04:49:46;55.80;;;25.60;;
58896;SDS011;44677;52.378;10.400;2023-02-08T04:52:11;50.70;;;23.20;;
58896;SDS011;44677;52.378;10.400;2023-02-08T04:54:36;49.90;;;21.80;;
58896;SDS011;44677;52.378;10.400;2023-02-08T04:57:02;52.50;;;21.20;;
58896;SDS011;44677;52.378;10.400;2023-02-08T04:59:28;53.80;;;23.00;;
58896;SDS011;44677;52.378;10.400;2023-02-08T05:01:53;48.40;;;22.30;;
58896;SDS011;44677;52.378;10.400;2023-02-08T05:04:19;57.40;;;22.70;;
58896;SDS011;44677;52.378;10.400;2023-02-08T05:06:44;55.00;;;21.40;;
58896;SDS011;44677;52.378;10.400;2023-02-08T05:09:09;51.30;;;23.00;;
58896;SDS011;44677;52.378;10.400;2023-02-08T05:11:35;47.90;;;20.60;;
58896;SDS011;44677;52.378;10.400;2023-02-08T05:14:01;51.70;;;22.60;;
58896;SDS011;44677;52.378;10.400;2023-02-08T05:16:27;47.80;;;20.30;;
58896;SDS011;44677;52.378;10.400;2023-02-08T05:18:54;49.60;;;19.10;;
58896;SDS011;44677;52.378;10.400;2023-02-08T05:21:21;55.70;;;22.90;;
58896;SDS011;44677;52.378;10.400;2023-02-08T05:23:50;49.70;;;21.70;;
58896;SDS011;44677;52.378;10.400;2023-02-08T05:26:16;48.20;;;21.30;;
58896;SDS011;44677;52.378;10.400;2023-02-08T05:28:42;42.20;;;18.10;;
58896;SDS011;44677;52.378;10.400;2023-02-08T05:31:16;42.70;;;19.70;;
58896;SDS011;44677;52.378;10.400;2023-02-08T05:33:47;47.70;;;21.00;;
58896;SDS011;44677;52.378;10.400;2023-02-08T05:36:14;57.80;;;23.60;;
58896;SDS011;44677;52.378;10.400;2023-02-08T05:38:45;45.40;;;20.30;;
58896;SDS011;44677;52.378;10.400;2023-02-08T05:41:11;49.10;;;21.30;;
58896;SDS011;44677;52.378;10.400;2023-02-08T05:43:38;48.30;;;20.90;;
58896;SDS011;44677;52.378;10.400;2023-02-08T05:46:03;49.60;;;20.90;;
58896;SDS011;44677;52.378;10.400;2023-02-08T05:48:29;51.20;;;21.40;;
58896;SDS011;44677;52.378;10.400;2023-02-08T05:50:59;44.50;;;21.10;;
58896;SDS011;44677;52.378;10.400;2023-02-08T05:53:25;51.40;;;21.80;;
58896;SDS011;44677;52.378;10.400;2023-02-08T05:55:51;54.10;;;23.30;;
58896;SDS011;44677;52.378;10.400;2023-02-08T05:58:22;42.40;;;20.20;;
58896;SDS011;44677;52.378;10.400;2023-02-08T06:00:48;44.80;;;20.60;;
58896;SDS011;44677;52.378;10.400;2023-02-08T06:03:14;44.10;;;20.50;;
58896;SDS011;44677;52.378;10.400;2023-02-08T06:05:39;51.30;;;21.50;;
58896;SDS011;44677;52.378;10.400;2023-02-08T06:08:05;43.60;;;20.00;;
58896;SDS011;44677;52.378;10.400;2023-02-08T06:10:31;45.00;;;19.80;;
58896;SDS011;44677;52.378;10.400;2023-02-08T06:12:57;46.30;;;19.70;;
58896;SDS011;44677;52.378;10.400;2023-02-08T06:15:23;39.60;;;18.20;;
58896;SDS011;44677;52.378;10.400;2023-02-08T06:17:48;44.50;;;20.90;;
58896;SDS011;44677;52.378;10.400;2023-02-08T06:20:14;45.40;;;21.80;;
58896;SDS011;44677;52.378;10.400;2023-02-08T06:22:40;42.70;;;20.00;;
58896;SDS011;44677;52.378;10.400;2023-02-08T06:25:05;46.30;;;19.70;;
58896;SDS011;44677;52.378;10.400;2023-02-08T06:27:31;48.50;;;21.50;;
58896;SDS011;44677;52.378;10.400;2023-02-08T06:29:56;48.20;;;21.90;;
58896;SDS011;44677;52.378;10.400;2023-02-08T06:32:22;40.90;;;19.50;;
58896;SDS011;44677;52.378;10.400;2023-02-08T06:34:47;46.20;;;21.20;;
58896;SDS011;44677;52.378;10.400;2023-02-08T06:37:16;47.30;;;21.40;;
58896;SDS011;44677;52.378;10.400;2023-02-08T06:39:42;40.20;;;19.20;;
58896;SDS011;44677;52.378;10.400;2023-02-08T06:42:07;39.90;;;18.70;;
58896;SDS011;44677;52.378;10.400;2023-02-08T06:44:33;46.00;;;19.70;;
58896;SDS011;44677;52.378;10.400;2023-02-08T06:46:58;45.70;;;21.20;;
58896;SDS011;44677;52.378;10.400;2023-02-08T06:49:24;49.20;;;21.90;;
58896;SDS011;44677;52.378;10.400;2023-02-08T06:51:49;48.00;;;21.70;;
58896;SDS011;44677;52.378;10.400;2023-02-08T06:54:15;42.40;;;18.20;;
58896;SDS011;44677;52.378;10.400;2023-02-08T06:56:41;43.00;;;20.70;;
58896;SDS011;44677;52.378;10.400;2023-02-08T06:59:07;52.70;;;20.10;;
58896;SDS011;44677;52.378;10.400;2023-02-08T07:01:32;39.60;;;18.80;;
58896;SDS011;44677;52.378;10.400;2023-02-08T07:03:58;45.50;;;18.50;;
58896;SDS011;44677;52.378;10.400;2023-02-08T07:06:25;45.90;;;19.10;;
58896;SDS011;44677;52.378;10.400;2023-02-08T07:08:51;46.40;;;18.80;;
58896;SDS011;44677;52.378;10.400;2023-02-08T07:11:17;41.30;;;17.90;;
58896;SDS011;44677;52.378;10.400;2023-02-08T07:13:51;53.50;;;20.40;;
58896;SDS011;44677;52.378;10.400;2023-02-08T07:16:18;48.50;;;20.90;;
58896;SDS011;44677;52.378;10.400;2023-02-08T07:18:44;45.80;;;18.90;;
58896;SDS011;44677;52.378;10.400;2023-02-08T07:21:10;46.90;;;20.30;;
58896;SDS011;44677;52.378;10.400;2023-02-08T07:23:36;34.00;;;16.30;;
58896;SDS011;44677;52.378;10.400;2023-02-08T07:26:04;48.30;;;22.10;;
58896;SDS011;44677;52.378;10.400;2023-02-08T07:28:30;54.50;;;23.80;;
58896;SDS011;44677;52.378;10.400;2023-02-08T07:30:56;54.40;;;23.70;;
58896;SDS011;44677;52.378;10.400;2023-02-08T07:33:22;48.70;;;23.70;;
58896;SDS011;44677;52.378;10.400;2023-02-08T07:35:53;55.20;;;23.50;;
58896;SDS011;44677;52.378;10.400;2023-02-08T07:38:19;48.50;;;23.20;;
58896;SDS011;44677;52.378;10.400;2023-02-08T07:40:44;54.90;;;24.80;;
58896;SDS011;44677;52.378;10.400;2023-02-08T07:43:09;52.30;;;24.80;;
58896;SDS011;44677;52.378;10.400;2023-02-08T07:45:41;54.40;;;27.10;;
58896;SDS011;44677;52.378;10.400;2023-02-08T07:48:06;53.40;;;26.50;;
58896;SDS011;44677;52.378;10.400;2023-02-08T07:50:32;52.00;;;24.70;;
58896;SDS011;44677;52.378;10.400;2023-02-08T07:52:57;54.70;;;24.30;;
58896;SDS011;44677;52.378;10.400;2023-02-08T07:55:23;52.40;;;24.10;;
58896;SDS011;44677;52.378;10.400;2023-02-08T07:57:49;50.90;;;22.50;;
58896;SDS011;44677;52.378;10.400;2023-02-08T08:00:15;55.50;;;25.20;;
58896;SDS011;44677;52.378;10.400;2023-02-08T08:02:42;55.80;;;25.10;;
58896;SDS011;44677;52.378;10.400;2023-02-08T08:05:08;57.70;;;26.70;;
58896;SDS011;44677;52.378;10.400;2023-02-08T08:07:34;56.10;;;24.40;;
58896;SDS011;44677;52.378;10.400;2023-02-08T08:10:00;57.50;;;25.60;;
58896;SDS011;44677;52.378;10.400;2023-02-08T08:12:26;56.00;;;24.60;;
58896;SDS011;44677;52.378;10.400;2023-02-08T08:14:51;53.70;;;24.60;;
58896;SDS011;44677;52.378;10.400;2023-02-08T08:17:17;58.30;;;25.10;;
58896;SDS011;44677;52.378;10.400;2023-02-08T08:19:43;55.60;;;23.40;;
58896;SDS011;44677;52.378;10.400;2023-02-08T08:22:08;56.60;;;23.90;;
58896;SDS011;44677;52.378;10.400;2023-02-08T08:24:34;57.00;;;25.50;;
58896;SDS011;44677;52.378;10.400;2023-02-08T08:27:08;53.10;;;23.90;;
58896;SDS011;44677;52.378;10.400;2023-02-08T08:29:35;50.40;;;23.30;;
58896;SDS011;44677;52.378;10.400;2023-02-08T08:32:08;54.00;;;24.30;;
58896;SDS011;44677;52.378;10.400;2023-02-08T08:34:33;58.10;;;25.70;;
58896;SDS011;44677;52.378;10.400;2023-02-08T08:36:59;56.10;;;25.10;;
58896;SDS011;44677;52.378;10.400;2023-02-08T08:39:30;49.30;;;22.60;;
58896;SDS011;44677;52.378;10.400;2023-02-08T08:41:56;51.80;;;23.20;;
58896;SDS011;44677;52.378;10.400;2023-02-08T08:44:25;52.00;;;24.10;;
58896;SDS011;44677;52.378;10.400;2023-02-08T08:46:54;52.80;;;24.10;;
58896;SDS011;44677;52.378;10.400;2023-02-08T08:49:21;52.90;;;23.30;;
58896;SDS011;44677;52.378;10.400;2023-02-08T08:51:49;52.90;;;23.40;;
58896;SDS011;44677;52.378;10.400;2023-02-08T08:54:15;49.00;;;23.70;;
58896;SDS011;44677;52.378;10.400;2023-02-08T08:56:41;51.00;;;24.00;;
58896;SDS011;44677;52.378;10.400;2023-02-08T08:59:07;48.10;;;23.50;;
58896;SDS011;44677;52.378;10.400;2023-02-08T09:01:32;51.90;;;23.80;;
58896;SDS011;44677;52.378;10.400;2023-02-08T09:03:57;53.40;;;24.00;;
58896;SDS011;44677;52.378;10.400;2023-02-08T09:06:23;49.70;;;22.50;;
58896;SDS011;44677;52.378;10.400;2023-02-08T09:08:49;57.90;;;23.90;;
58896;SDS011;44677;52.378;10.400;2023-02-08T09:11:14;52.70;;;24.30;;
58896;SDS011;44677;52.378;10.400;2023-02-08T09:13:40;50.80;;;22.90;;
58896;SDS011;44677;52.378;10.400;2023-02-08T09:16:16;50.50;;;23.80;;
58896;SDS011;44677;52.378;10.400;2023-02-08T09:18:42;49.60;;;23.60;;
58896;SDS011;44677;52.378;10.400;2023-02-08T09:21:10;49.70;;;23.10;;
58896;SDS011;44677;52.378;10.400;2023-02-08T09:23:45;49.20;;;24.10;;
58896;SDS011;44677;52.378;10.400;2023-02-08T09:26:14;49.00;;;21.70;;
58896;SDS011;44677;52.378;10.400;2023-02-08T09:28:54;46.70;;;22.00;;
58896;SDS011;44677;52.378;10.400;2023-02-08T09:31:26;49.50;;;23.30;;
58896;SDS011;44677;52.378;10.400;2023-02-08T09:34:06;47.10;;;22.70;;
58896;SDS011;44677;52.378;10.400;2023-02-08T09:36:33;50.80;;;23.30;;
58896;SDS011;44677;52.378;10.400;2023-02-08T09:39:10;44.70;;;22.40;;
58896;SDS011;44677;52.378;10.400;2023-02-08T09:45:04;48.80;;;22.90;;
58896;SDS011;44677;52.378;10.400;2023-02-08T09:47:53;51.50;;;24.30;;
58896;SDS011;44677;52.378;10.400;2023-02-08T09:53:13;50.00;;;23.10;;
58896;SDS011;44677;52.378;10.400;2023-02-08T09:55:49;53.80;;;24.30;;
58896;SDS011;44677;52.378;10.400;2023-02-08T09:58:39;50.60;;;23.40;;
58896;SDS011;44677;52.378;10.400;2023-02-08T10:01:25;49.90;;;23.20;;
58896;SDS011;44677;52.378;10.400;2023-02-08T10:04:00;47.90;;;24.00;;
58896;SDS011;44677;52.378;10.400;2023-02-08T10:06:56;48.90;;;24.40;;
58896;SDS011;44677;52.378;10.400;2023-02-08T10:09:24;48.00;;;25.00;;
58896;SDS011;44677;52.378;10.400;2023-02-08T10:12:06;50.90;;;24.50;;
58896;SDS011;44677;52.378;10.400;2023-02-08T10:37:10;44.20;;;21.80;;
58896;SDS011;44677;52.378;10.400;2023-02-08T10:39:45;45.90;;;22.50;;
58896;SDS011;44677;52.378;10.400;2023-02-08T10:42:20;47.00;;;23.40;;
58896;SDS011;44677;52.378;10.400;2023-02-08T10:47:31;47.10;;;22.20;;
58896;SDS011;44677;52.378;10.400;2023-02-08T10:50:17;49.80;;;23.70;;
58896;SDS011;44677;52.378;10.400;2023-02-08T10:52:53;47.70;;;22.30;;
58896;SDS011;44677;52.378;10.400;2023-02-08T10:55:29;45.50;;;22.10;;
58896;SDS011;44677;52.378;10.400;2023-02-08T10:58:01;46.80;;;23.40;;
58896;SDS011;44677;52.378;10.400;2023-02-08T11:00:50;39.10;;;21.20;;
58896;SDS011;44677;52.378;10.400;2023-02-08T11:03:21;40.10;;;22.10;;
58896;SDS011;44677;52.378;10.400;2023-02-08T11:05:54;46.10;;;23.70;;
58896;SDS011;44677;52.378;10.400;2023-02-08T11:08:21;40.90;;;21.10;;
58896;SDS011;44677;52.378;10.400;2023-02-08T11:11:07;44.30;;;21.50;;
58896;SDS011;44677;52.378;10.400;2023-02-08T11:13:42;42.30;;;22.20;;
58896;SDS011;44677;52.378;10.400;2023-02-08T11:16:20;35.30;;;19.80;;
58896;SDS011;44677;52.378;10.400;2023-02-08T11:21:32;33.90;;;20.00;;
58896;SDS011;44677;52.378;10.400;2023-02-08T11:24:26;37.00;;;20.70;;
58896;SDS011;44677;52.378;10.400;2023-02-08T11:36:11;35.80;;;20.10;;
58896;SDS011;44677;52.378;10.400;2023-02-08T11:38:44;33.90;;;19.70;;
58896;SDS011;44677;52.378;10.400;2023-02-08T11:41:14;39.00;;;21.90;;
58896;SDS011;44677;52.378;10.400;2023-02-08T11:46:33;30.90;;;18.00;;
58896;SDS011;44677;52.378;10.400;2023-02-08T11:49:10;31.80;;;16.90;;
58896;SDS011;44677;52.378;10.400;2023-02-08T11:52:43;33.10;;;17.00;;
58896;SDS011;44677;52.378;10.400;2023-02-08T11:55:21;30.00;;;18.30;;
58896;SDS011;44677;52.378;10.400;2023-02-08T11:57:57;34.20;;;18.70;;
58896;SDS011;44677;52.378;10.400;2023-02-08T12:00:56;34.70;;;18.80;;
58896;SDS011;44677;52.378;10.400;2023-02-08T12:03:49;29.60;;;17.30;;
58896;SDS011;44677;52.378;10.400;2023-02-08T12:06:19;29.70;;;17.00;;
58896;SDS011;44677;52.378;10.400;2023-02-08T12:09:04;29.30;;;16.40;;
58896;SDS011;44677;52.378;10.400;2023-02-08T12:11:44;28.30;;;16.50;;
58896;SDS011;44677;52.378;10.400;2023-02-08T12:25:55;30.60;;;16.70;;
58896;SDS011;44677;52.378;10.400;2023-02-08T12:31:19;27.80;;;16.80;;
58896;SDS011;44677;52.378;10.400;2023-02-08T12:34:09;27.80;;;15.10;;
58896;SDS011;44677;52.378;10.400;2023-02-08T12:40:10;25.90;;;14.70;;
58896;SDS011;44677;52.378;10.400;2023-02-08T12:43:15;25.40;;;14.90;;
58896;SDS011;44677;52.378;10.400;2023-02-08T12:51:50;21.10;;;13.80;;
58896;SDS011;44677;52.378;10.400;2023-02-08T12:57:20;20.10;;;12.50;;
58896;SDS011;44677;52.378;10.400;2023-02-08T12:59:48;19.80;;;12.30;;
58896;SDS011;44677;52.378;10.400;2023-02-08T13:02:19;21.30;;;12.90;;
58896;SDS011;44677;52.378;10.400;2023-02-08T13:04:51;21.30;;;12.70;;
58896;SDS011;44677;52.378;10.400;2023-02-08T13:07:22;18.30;;;12.80;;
58896;SDS011;44677;52.378;10.400;2023-02-08T13:10:10;17.30;;;11.50;;
58896;SDS011;44677;52.378;10.400;2023-02-08T13:12:41;21.80;;;11.20;;
58896;SDS011;44677;52.378;10.400;2023-02-08T13:15:18;16.90;;;10.50;;
58896;SDS011;44677;52.378;10.400;2023-02-08T13:17:54;16.80;;;10.00;;
58896;SDS011;44677;52.378;10.400;2023-02-08T13:20:43;18.40;;;11.80;;
58896;SDS011;44677;52.378;10.400;2023-02-08T13:23:17;18.50;;;11.10;;
58896;SDS011;44677;52.378;10.400;2023-02-08T13:25:44;16.90;;;10.40;;
58896;SDS011;44677;52.378;10.400;2023-02-08T13:28:15;16.80;;;10.00;;
58896;SDS011;44677;52.378;10.400;2023-02-08T13:30:54;11.00;;;7.90;;
58896;SDS011;44677;52.378;10.400;2023-02-08T13:36:21;14.20;;;9.00;;
58896;SDS011;44677;52.378;10.400;2023-02-08T13:38:56;13.50;;;9.10;;
58896;SDS011;44677;52.378;10.400;2023-02-08T13:41:23;15.50;;;9.50;;
58896;SDS011;44677;52.378;10.400;2023-02-08T13:44:02;14.40;;;8.40;;
58896;SDS011;44677;52.378;10.400;2023-02-08T13:46:34;15.30;;;9.50;;
58896;SDS011;44677;52.378;10.400;2023-02-08T13:49:03;15.60;;;9.20;;
58896;SDS011;44677;52.378;10.400;2023-02-08T14:04:44;12.70;;;8.30;;
58896;SDS011;44677;52.378;10.400;2023-02-08T14:12:40;12.80;;;8.80;;
58896;SDS011;44677;52.378;10.400;2023-02-08T14:17:43;14.20;;;7.80;;
58896;SDS011;44677;52.378;10.400;2023-02-08T14:20:32;12.40;;;7.60;;
58896;SDS011;44677;52.378;10.400;2023-02-08T14:23:19;10.20;;;7.00;;
58896;SDS011;44677;52.378;10.400;2023-02-08T14:26:06;12.00;;;7.10;;
58896;SDS011;44677;52.378;10.400;2023-02-08T14:28:42;11.30;;;7.40;;
58896;SDS011;44677;52.378;10.400;2023-02-08T14:31:09;11.50;;;7.30;;
58896;SDS011;44677;52.378;10.400;2023-02-08T14:33:49;11.60;;;6.60;;
58896;SDS011;44677;52.378;10.400;2023-02-08T14:36:30;10.80;;;7.00;;
58896;SDS011;44677;52.378;10.400;2023-02-08T14:41:51;13.00;;;7.60;;
58896;SDS011;44677;52.378;10.400;2023-02-08T14:47:10;12.20;;;8.00;;
58896;SDS011;44677;52.378;10.400;2023-02-08T14:49:48;13.90;;;11.10;;
58896;SDS011;44677;52.378;10.400;2023-02-08T14:52:23;15.60;;;8.30;;
58896;SDS011;44677;52.378;10.400;2023-02-08T14:59:52;15.50;;;9.90;;
58896;SDS011;44677;52.378;10.400;2023-02-08T15:02:19;17.80;;;10.00;;
58896;SDS011;44677;52.378;10.400;2023-02-08T15:04:58;14.70;;;9.90;;
58896;SDS011;44677;52.378;10.400;2023-02-08T15:07:38;16.60;;;10.90;;
58896;SDS011;44677;52.378;10.400;2023-02-08T15:10:13;19.20;;;11.70;;
58896;SDS011;44677;52.378;10.400;2023-02-08T15:12:46;19.10;;;11.30;;
58896;SDS011;44677;52.378;10.400;2023-02-08T15:15:25;20.10;;;12.00;;
58896;SDS011;44677;52.378;10.400;2023-02-08T15:17:56;17.80;;;10.40;;
58896;SDS011;44677;52.378;10.400;2023-02-08T15:20:26;17.60;;;11.10;;
58896;SDS011;44677;52.378;10.400;2023-02-08T15:23:02;16.60;;;10.50;;
58896;SDS011;44677;52.378;10.400;2023-02-08T15:25:30;21.40;;;11.90;;
58896;SDS011;44677;52.378;10.400;2023-02-08T15:28:00;19.90;;;12.20;;
58896;SDS011;44677;52.378;10.400;2023-02-08T15:30:44;25.80;;;14.40;;
58896;SDS011;44677;52.378;10.400;2023-02-08T15:33:14;20.70;;;13.30;;
58896;SDS011;44677;52.378;10.400;2023-02-08T15:35:53;23.00;;;14.90;;
58896;SDS011;44677;52.378;10.400;2023-02-08T15:38:40;24.50;;;14.60;;
58896;SDS011;44677;52.378;10.400;2023-02-08T15:43:39;27.70;;;13.90;;
58896;SDS011;44677;52.378;10.400;2023-02-08T15:46:19;26.80;;;16.10;;
58896;SDS011;44677;52.378;10.400;2023-02-08T15:48:50;27.40;;;15.50;;
58896;SDS011;44677;52.378;10.400;2023-02-08T15:51:21;26.80;;;15.70;;
58896;SDS011;44677;52.378;10.400;2023-02-08T15:56:16;27.90;;;16.70;;
58896;SDS011;44677;52.378;10.400;2023-02-08T15:58:55;25.10;;;14.80;;
58896;SDS011;44677;52.378;10.400;2023-02-08T16:01:22;29.20;;;16.90;;
58896;SDS011;44677;52.378;10.400;2023-02-08T16:03:48;25.70;;;14.90;;
58896;SDS011;44677;52.378;10.400;2023-02-08T16:06:43;27.50;;;17.40;;
58896;SDS011;44677;52.378;10.400;2023-02-08T16:09:12;29.60;;;16.70;;
58896;SDS011;44677;52.378;10.400;2023-02-08T16:14:24;24.40;;;14.70;;
58896;SDS011;44677;52.378;10.400;2023-02-08T16:16:52;32.70;;;15.70;;
58896;SDS011;44677;52.378;10.400;2023-02-08T16:21:49;25.50;;;15.60;;
58896;SDS011;44677;52.378;10.400;2023-02-08T16:26:43;30.10;;;19.10;;
58896;SDS011;44677;52.378;10.400;2023-02-08T16:29:20;33.20;;;17.10;;
58896;SDS011;44677;52.378;10.400;2023-02-08T16:31:47;30.60;;;18.00;;
58896;SDS011;44677;52.378;10.400;2023-02-08T16:34:28;30.70;;;17.30;;
58896;SDS011;44677;52.378;10.400;2023-02-08T16:36:55;32.70;;;18.30;;
58896;SDS011;44677;52.378;10.400;2023-02-08T16:39:22;35.20;;;19.70;;
58896;SDS011;44677;52.378;10.400;2023-02-08T16:42:18;36.00;;;21.00;;
58896;SDS011;44677;52.378;10.400;2023-02-08T16:44:58;33.90;;;21.50;;
58896;SDS011;44677;52.378;10.400;2023-02-08T16:47:40;41.20;;;22.60;;
58896;SDS011;44677;52.378;10.400;2023-02-08T16:50:10;31.80;;;19.80;;
58896;SDS011;44677;52.378;10.400;2023-02-08T16:52:37;41.00;;;23.90;;
58896;SDS011;44677;52.378;10.400;2023-02-08T16:55:03;30.30;;;18.80;;
58896;SDS011;44677;52.378;10.400;2023-02-08T16:57:39;41.70;;;23.40;;
58896;SDS011;44677;52.378;10.400;2023-02-08T17:00:12;42.90;;;23.20;;
58896;SDS011;44677;52.378;10.400;2023-02-08T17:02:42;45.70;;;23.50;;
58896;SDS011;44677;52.378;10.400;2023-02-08T17:05:08;44.70;;;22.80;;
58896;SDS011;44677;52.378;10.400;2023-02-08T17:07:34;51.30;;;25.50;;
58896;SDS011;44677;52.378;10.400;2023-02-08T17:10:04;53.10;;;24.60;;
58896;SDS011;44677;52.378;10.400;2023-02-08T17:12:30;47.50;;;24.60;;
58896;SDS011;44677;52.378;10.400;2023-02-08T17:14:56;45.30;;;25.40;;